Terminal Aerodrome Forecast
Issued by NWS

Home | Current Version | Previous Version | Text Only | Print | Product List | Glossary On
Versions: 1 2 3 4 5 6 7 8 9 10 11 12 13 14 15 16 17
000
FTUS41 KBTV 210534
TAFMSS
TAF
KMSS 210534Z 2106/2206 07006KT 5SM BR BKN004 OVC020
      TEMPO 2106/2110 6SM BR SCT004 BKN010
     FM211200 VRB03KT P6SM BKN020
     FM220000 00000KT 6SM BR OVC010=

USA.gov is the U.S. government's official web portal to all federal, state and local government web resources and services.